Fantasy — H3GS — position and weather

sailwx.info

Track history (hours):
 
Tides and Currents Weather Stations Pressure Air Temp Water Temp Dewpoint Dewpoint Depression Visibility Wind Speed Wind Dir Waves Ship Positions

Fantasy

Operator: Carnival Cruise Lines

Last reported at 2016-Jun-28 03:00 UTC. Time now 2016-Jun-28 13:29 UTC.
Position N 24°48' W 080°18'.

Type: Ship. MMSI: 353486000.

Wind from 120 at 13 knots

Waves 0.5 meters (2 feet), 4 second period

Barometer 1016.0 mb
Air temperature 27.0 ° C
Visibility: greater than 10.8 NM
Dewpoint 24.1 ° C
Water temperature 29.5 ° C

Date/timePositionNaut miles runAvg speedWind from/ knotsBaromVisibWave heightAir tempDewpointWater temp
2016-Jun-28 03:00N 24°48' W 080°18'5411.6 120 / 131016.010.8 0.527.024.129.5
2016-Jun-27 22:21N 25°37' W 079°54'1012.5
2016-Jun-27 21:33N 25°44' W 080°02'7 0.7
2016-Jun-27 11:33N 25°47' W 080°10'4 3.6
2016-Jun-27 10:33N 25°46' W 080°06'9 9.0
2016-Jun-27 09:33N 25°50' W 079°57'5 4.5
2016-Jun-27 08:32N 25°52' W 079°53'7 6.8
2016-Jun-27 07:33N 25°57' W 079°48'8 7.7
2016-Jun-27 06:34N 25°59' W 079°40'8 7.7
2016-Jun-27 05:34N 26°03' W 079°32'14 0.3
2016-Jun-25 02:20N 26°10' W 079°19'1215.1
2016-Jun-25 01:33N 26°05' W 079°30'1616.0
2016-Jun-25 00:33N 25°56' W 079°46'1616.3
2016-Jun-24 23:34N 25°48' W 080°01'9 8.8
2016-Jun-24 22:33N 25°47' W 080°11'1 0.6
2016-Jun-24 21:23N 25°47' W 080°10'0 0.0
2016-Jun-24 20:30N 25°47' W 080°10'0 0.0
2016-Jun-24 19:23N 25°47' W 080°10'0 0.0
2016-Jun-24 18:32N 25°47' W 080°10'0 0.0
2016-Jun-24 17:23N 25°47' W 080°10'0 0.0
2016-Jun-24 16:19N 25°47' W 080°10'0 0.0
2016-Jun-24 15:28N 25°47' W 080°10'0 0.0
2016-Jun-24 14:33N 25°47' W 080°10'0 0.0
2016-Jun-24 13:30N 25°47' W 080°10'0 0.0
2016-Jun-24 12:23N 25°47' W 080°10'0 0.0
2016-Jun-24 11:32N 25°47' W 080°10'6 6.2
2016-Jun-24 10:33N 25°47' W 080°04'9 8.6
2016-Jun-24 09:34N 25°50' W 079°55'9 8.7
2016-Jun-24 08:33N 25°55' W 079°47'7 7.2
2016-Jun-24 07:33N 25°59' W 079°40'7 7.2
2016-Jun-24 06:33N 26°03' W 079°33'  
2016-Jun-21 00:33N 26°07' W 079°24'1413.9
2016-Jun-20 23:33N 26°01' W 079°38'1413.7
2016-Jun-20 22:33N 25°55' W 079°51'1413.8
2016-Jun-20 21:33N 25°46' W 080°03'6 2.8
2016-Jun-20 19:18N 25°47' W 080°10'0 0.0
2016-Jun-20 17:06N 25°47' W 080°10'0 0.0
2016-Jun-20 15:32N 25°47' W 080°10'0 0.0
2016-Jun-20 11:33N 25°47' W 080°10'2 2.0
2016-Jun-20 10:33N 25°46' W 080°08'10 9.6
2016-Jun-20 09:33N 25°49' W 079°58'10 9.9
2016-Jun-20 08:33N 25°54' W 079°49'8 8.2
2016-Jun-20 07:33N 25°58' W 079°41'9 8.6
2016-Jun-20 06:33N 26°04' W 079°33'8 8.4
2016-Jun-20 05:33N 26°09' W 079°26'2911.2
2016-Jun-20 03:00N 26°12' W 078°54'79 1.9 080 / 161018.010.8 1.026.023.129.0
2016-Jun-18 09:00N 25°48' W 077°30'   280 / 221015.010.8 0.526.024.629.0
Track history (hours):
 
Tides and Currents Weather Stations Pressure Air Temp Water Temp Dewpoint Dewpoint Depression Visibility Wind Speed Wind Dir Waves Ship Positions

Fantasy

Operator: Carnival Cruise Lines

Last reported at 2016-Jun-28 03:00 UTC. Time now 2016-Jun-28 13:29 UTC.
Position N 24°48' W 080°18'.

Type: Ship. MMSI: 353486000.

Wind from 120 at 13 knots

Waves 0.5 meters (2 feet), 4 second period

Barometer 1016.0 mb
Air temperature 27.0 ° C
Visibility: greater than 10.8 NM
Dewpoint 24.1 ° C
Water temperature 29.5 ° C

Date/timePositionNaut miles runAvg speedWind from/ knotsBaromVisibWave heightAir tempDewpointWater temp
2016-Jun-28 03:00N 24°48' W 080°18'5411.6 120 / 131016.010.8 0.527.024.129.5
2016-Jun-27 22:21N 25°37' W 079°54'1012.5
2016-Jun-27 21:33N 25°44' W 080°02'7 0.7
2016-Jun-27 11:33N 25°47' W 080°10'4 3.6
2016-Jun-27 10:33N 25°46' W 080°06'9 9.0
2016-Jun-27 09:33N 25°50' W 079°57'5 4.5
2016-Jun-27 08:32N 25°52' W 079°53'7 6.8
2016-Jun-27 07:33N 25°57' W 079°48'8 7.7
2016-Jun-27 06:34N 25°59' W 079°40'8 7.7
2016-Jun-27 05:34N 26°03' W 079°32'14 0.3
2016-Jun-25 02:20N 26°10' W 079°19'1215.1
2016-Jun-25 01:33N 26°05' W 079°30'1616.0
2016-Jun-25 00:33N 25°56' W 079°46'1616.3
2016-Jun-24 23:34N 25°48' W 080°01'9 8.8
2016-Jun-24 22:33N 25°47' W 080°11'1 0.6
2016-Jun-24 21:23N 25°47' W 080°10'0 0.0
2016-Jun-24 20:30N 25°47' W 080°10'0 0.0
2016-Jun-24 19:23N 25°47' W 080°10'0 0.0
2016-Jun-24 18:32N 25°47' W 080°10'0 0.0
2016-Jun-24 17:23N 25°47' W 080°10'0 0.0
2016-Jun-24 16:19N 25°47' W 080°10'0 0.0
2016-Jun-24 15:28N 25°47' W 080°10'0 0.0
2016-Jun-24 14:33N 25°47' W 080°10'0 0.0
2016-Jun-24 13:30N 25°47' W 080°10'0 0.0
2016-Jun-24 12:23N 25°47' W 080°10'0 0.0
2016-Jun-24 11:32N 25°47' W 080°10'6 6.2
2016-Jun-24 10:33N 25°47' W 080°04'9 8.6
2016-Jun-24 09:34N 25°50' W 079°55'9 8.7
2016-Jun-24 08:33N 25°55' W 079°47'7 7.2
2016-Jun-24 07:33N 25°59' W 079°40'7 7.2
2016-Jun-24 06:33N 26°03' W 079°33'  
2016-Jun-21 00:33N 26°07' W 079°24'1413.9
2016-Jun-20 23:33N 26°01' W 079°38'1413.7
2016-Jun-20 22:33N 25°55' W 079°51'1413.8
2016-Jun-20 21:33N 25°46' W 080°03'6 2.8
2016-Jun-20 19:18N 25°47' W 080°10'0 0.0
2016-Jun-20 17:06N 25°47' W 080°10'0 0.0
2016-Jun-20 15:32N 25°47' W 080°10'0 0.0
2016-Jun-20 11:33N 25°47' W 080°10'2 2.0
2016-Jun-20 10:33N 25°46' W 080°08'10 9.6
2016-Jun-20 09:33N 25°49' W 079°58'10 9.9
2016-Jun-20 08:33N 25°54' W 079°49'8 8.2
2016-Jun-20 07:33N 25°58' W 079°41'9 8.6
2016-Jun-20 06:33N 26°04' W 079°33'8 8.4
2016-Jun-20 05:33N 26°09' W 079°26'2911.2
2016-Jun-20 03:00N 26°12' W 078°54'79 1.9 080 / 161018.010.8 1.026.023.129.0
2016-Jun-18 09:00N 25°48' W 077°30'   280 / 221015.010.8 0.526.024.629.0

Dump ship's entire track history